sensor_id;sensor_type;location;lat;lon;timestamp;pressure;altitude;pressure_sealevel;temperature
67353;BMP180;54238;52.278;21.056;2022-07-29T00:01:50;101040.40;;;17.10
67353;BMP180;54238;52.278;21.056;2022-07-29T00:04:21;101035.20;;;17.10
67353;BMP180;54238;52.278;21.056;2022-07-29T00:06:51;101034.60;;;17.02
67353;BMP180;54238;52.278;21.056;2022-07-29T00:09:22;101036.40;;;17.00
67353;BMP180;54238;52.278;21.056;2022-07-29T00:11:58;101037.00;;;17.00
67353;BMP180;54238;52.278;21.056;2022-07-29T00:14:26;101038.40;;;16.90
67353;BMP180;54238;52.278;21.056;2022-07-29T00:16:55;101044.80;;;16.90
67353;BMP180;54238;52.278;21.056;2022-07-29T00:19:27;101045.80;;;16.90
67353;BMP180;54238;52.278;21.056;2022-07-29T00:21:59;101044.20;;;16.80
67353;BMP180;54238;52.278;21.056;2022-07-29T00:24:27;101042.80;;;16.82
67353;BMP180;54238;52.278;21.056;2022-07-29T00:26:56;101041.00;;;16.84
67353;BMP180;54238;52.278;21.056;2022-07-29T00:29:23;101043.20;;;16.88
67353;BMP180;54238;52.278;21.056;2022-07-29T00:31:50;101042.80;;;16.80
67353;BMP180;54238;52.278;21.056;2022-07-29T00:34:20;101040.80;;;16.80
67353;BMP180;54238;52.278;21.056;2022-07-29T00:37:06;101041.60;;;16.80
67353;BMP180;54238;52.278;21.056;2022-07-29T00:39:34;101040.20;;;16.80
67353;BMP180;54238;52.278;21.056;2022-07-29T00:42:05;101051.00;;;16.80
67353;BMP180;54238;52.278;21.056;2022-07-29T00:44:40;101045.40;;;16.80
67353;BMP180;54238;52.278;21.056;2022-07-29T00:47:11;101037.80;;;16.80
67353;BMP180;54238;52.278;21.056;2022-07-29T00:49:42;101036.60;;;16.70
67353;BMP180;54238;52.278;21.056;2022-07-29T00:52:14;101032.20;;;16.70
67353;BMP180;54238;52.278;21.056;2022-07-29T00:54:43;101035.20;;;16.60
67353;BMP180;54238;52.278;21.056;2022-07-29T00:57:13;101040.00;;;16.60
67353;BMP180;54238;52.278;21.056;2022-07-29T00:59:42;101034.00;;;16.60
67353;BMP180;54238;52.278;21.056;2022-07-29T01:02:09;101034.80;;;16.60
67353;BMP180;54238;52.278;21.056;2022-07-29T01:04:36;101041.00;;;16.52
67353;BMP180;54238;52.278;21.056;2022-07-29T01:07:28;101041.40;;;16.50
67353;BMP180;54238;52.278;21.056;2022-07-29T01:10:04;101037.20;;;16.40
67353;BMP180;54238;52.278;21.056;2022-07-29T01:12:57;101041.00;;;16.50
67353;BMP180;54238;52.278;21.056;2022-07-29T01:15:56;101038.60;;;16.40
67353;BMP180;54238;52.278;21.056;2022-07-29T01:18:34;101032.60;;;16.40
67353;BMP180;54238;52.278;21.056;2022-07-29T01:21:53;101032.00;;;16.40
67353;BMP180;54238;52.278;21.056;2022-07-29T01:28:13;101029.20;;;16.40
67353;BMP180;54238;52.278;21.056;2022-07-29T01:30:47;101031.20;;;16.40
67353;BMP180;54238;52.278;21.056;2022-07-29T01:33:41;101031.80;;;16.36
67353;BMP180;54238;52.278;21.056;2022-07-29T01:36:42;101032.00;;;16.30
67353;BMP180;54238;52.278;21.056;2022-07-29T01:39:43;101031.00;;;16.30
67353;BMP180;54238;52.278;21.056;2022-07-29T01:42:42;101031.20;;;16.30
67353;BMP180;54238;52.278;21.056;2022-07-29T01:46:00;101033.40;;;16.30
67353;BMP180;54238;52.278;21.056;2022-07-29T01:48:45;101032.80;;;16.30
67353;BMP180;54238;52.278;21.056;2022-07-29T01:51:25;101034.20;;;16.22
67353;BMP180;54238;52.278;21.056;2022-07-29T01:54:21;101034.60;;;16.20
67353;BMP180;54238;52.278;21.056;2022-07-29T01:56:55;101036.80;;;16.20
67353;BMP180;54238;52.278;21.056;2022-07-29T01:59:26;101038.20;;;16.10
67353;BMP180;54238;52.278;21.056;2022-07-29T02:01:59;101039.00;;;16.10
67353;BMP180;54238;52.278;21.056;2022-07-29T02:04:35;101039.40;;;16.10
67353;BMP180;54238;52.278;21.056;2022-07-29T02:07:10;101042.60;;;16.10
67353;BMP180;54238;52.278;21.056;2022-07-29T02:09:45;101044.60;;;16.10
67353;BMP180;54238;52.278;21.056;2022-07-29T02:12:17;101044.80;;;16.00
67353;BMP180;54238;52.278;21.056;2022-07-29T02:14:54;101050.00;;;16.00
67353;BMP180;54238;52.278;21.056;2022-07-29T02:17:43;101045.00;;;16.00
67353;BMP180;54238;52.278;21.056;2022-07-29T02:20:18;101037.20;;;16.00
67353;BMP180;54238;52.278;21.056;2022-07-29T02:22:49;101035.20;;;15.90
67353;BMP180;54238;52.278;21.056;2022-07-29T02:25:24;101034.00;;;15.90
67353;BMP180;54238;52.278;21.056;2022-07-29T02:27:52;101032.20;;;15.90
67353;BMP180;54238;52.278;21.056;2022-07-29T02:30:24;101030.40;;;15.90
67353;BMP180;54238;52.278;21.056;2022-07-29T02:32:55;101029.40;;;15.90
67353;BMP180;54238;52.278;21.056;2022-07-29T02:35:23;101029.00;;;15.80
67353;BMP180;54238;52.278;21.056;2022-07-29T02:37:58;101029.00;;;15.80
67353;BMP180;54238;52.278;21.056;2022-07-29T02:40:46;101029.60;;;15.80
67353;BMP180;54238;52.278;21.056;2022-07-29T02:43:23;101031.60;;;15.78
67353;BMP180;54238;52.278;21.056;2022-07-29T02:45:56;101031.00;;;15.74
67353;BMP180;54238;52.278;21.056;2022-07-29T02:48:36;101032.20;;;15.70
67353;BMP180;54238;52.278;21.056;2022-07-29T02:51:17;101031.40;;;15.70
67353;BMP180;54238;52.278;21.056;2022-07-29T02:53:53;101032.00;;;15.76
67353;BMP180;54238;52.278;21.056;2022-07-29T02:56:27;101036.20;;;15.74
67353;BMP180;54238;52.278;21.056;2022-07-29T02:59:04;101032.40;;;15.70
67353;BMP180;54238;52.278;21.056;2022-07-29T03:01:34;101032.20;;;15.70
67353;BMP180;54238;52.278;21.056;2022-07-29T03:04:04;101038.00;;;15.70
67353;BMP180;54238;52.278;21.056;2022-07-29T03:06:33;101035.00;;;15.70
67353;BMP180;54238;52.278;21.056;2022-07-29T03:09:07;101040.20;;;15.70
67353;BMP180;54238;52.278;21.056;2022-07-29T03:11:35;101038.80;;;15.70
67353;BMP180;54238;52.278;21.056;2022-07-29T03:14:07;101040.60;;;15.70
67353;BMP180;54238;52.278;21.056;2022-07-29T03:16:39;101036.20;;;15.70
67353;BMP180;54238;52.278;21.056;2022-07-29T03:19:07;101039.20;;;15.70
67353;BMP180;54238;52.278;21.056;2022-07-29T03:21:34;101041.00;;;15.70
67353;BMP180;54238;52.278;21.056;2022-07-29T03:24:01;101042.20;;;15.70
67353;BMP180;54238;52.278;21.056;2022-07-29T03:26:28;101047.20;;;15.68
67353;BMP180;54238;52.278;21.056;2022-07-29T03:28:56;101047.60;;;15.62
67353;BMP180;54238;52.278;21.056;2022-07-29T03:31:23;101050.60;;;15.68
67353;BMP180;54238;52.278;21.056;2022-07-29T03:33:50;101052.60;;;15.70
67353;BMP180;54238;52.278;21.056;2022-07-29T03:36:17;101054.80;;;15.70
67353;BMP180;54238;52.278;21.056;2022-07-29T03:38:47;101047.40;;;15.70
67353;BMP180;54238;52.278;21.056;2022-07-29T03:41:19;101046.80;;;15.70
67353;BMP180;54238;52.278;21.056;2022-07-29T03:43:51;101042.20;;;15.70
67353;BMP180;54238;52.278;21.056;2022-07-29T03:46:22;101037.80;;;15.70
67353;BMP180;54238;52.278;21.056;2022-07-29T03:48:58;101035.80;;;15.70
67353;BMP180;54238;52.278;21.056;2022-07-29T03:51:31;101032.00;;;15.70
67353;BMP180;54238;52.278;21.056;2022-07-29T03:53:58;101036.80;;;15.70
67353;BMP180;54238;52.278;21.056;2022-07-29T03:56:27;101040.40;;;15.80
67353;BMP180;54238;52.278;21.056;2022-07-29T03:59:04;101043.00;;;15.80
67353;BMP180;54238;52.278;21.056;2022-07-29T04:01:34;101043.00;;;15.80
67353;BMP180;54238;52.278;21.056;2022-07-29T04:04:04;101040.40;;;15.80
67353;BMP180;54238;52.278;21.056;2022-07-29T04:06:43;101044.60;;;15.90
67353;BMP180;54238;52.278;21.056;2022-07-29T04:09:11;101050.00;;;15.90
67353;BMP180;54238;52.278;21.056;2022-07-29T04:11:42;101046.00;;;15.90
67353;BMP180;54238;52.278;21.056;2022-07-29T04:14:12;101046.00;;;15.90
67353;BMP180;54238;52.278;21.056;2022-07-29T04:16:49;101044.80;;;16.00
67353;BMP180;54238;52.278;21.056;2022-07-29T04:19:19;101050.00;;;16.00
67353;BMP180;54238;52.278;21.056;2022-07-29T04:22:18;101050.40;;;16.00
67353;BMP180;54238;52.278;21.056;2022-07-29T04:24:50;101051.40;;;16.10
67353;BMP180;54238;52.278;21.056;2022-07-29T04:27:19;101047.20;;;16.10
67353;BMP180;54238;52.278;21.056;2022-07-29T04:29:48;101049.80;;;16.20
67353;BMP180;54238;52.278;21.056;2022-07-29T04:32:15;101050.80;;;16.20
67353;BMP180;54238;52.278;21.056;2022-07-29T04:34:45;101049.00;;;16.20
67353;BMP180;54238;52.278;21.056;2022-07-29T04:37:15;101048.60;;;16.22
67353;BMP180;54238;52.278;21.056;2022-07-29T04:39:42;101048.40;;;16.28
67353;BMP180;54238;52.278;21.056;2022-07-29T04:42:09;101046.80;;;16.30
67353;BMP180;54238;52.278;21.056;2022-07-29T04:44:36;101052.80;;;16.40
67353;BMP180;54238;52.278;21.056;2022-07-29T04:47:07;101053.60;;;16.40
67353;BMP180;54238;52.278;21.056;2022-07-29T04:49:39;101051.60;;;16.50
67353;BMP180;54238;52.278;21.056;2022-07-29T04:52:08;101055.00;;;16.50
67353;BMP180;54238;52.278;21.056;2022-07-29T04:54:35;101052.20;;;16.56
67353;BMP180;54238;52.278;21.056;2022-07-29T04:57:02;101055.60;;;16.60
67353;BMP180;54238;52.278;21.056;2022-07-29T04:59:29;101056.20;;;16.60
67353;BMP180;54238;52.278;21.056;2022-07-29T05:01:56;101054.80;;;16.70
67353;BMP180;54238;52.278;21.056;2022-07-29T05:04:24;101062.80;;;16.78
67353;BMP180;54238;52.278;21.056;2022-07-29T05:06:54;101062.40;;;16.80
67353;BMP180;54238;52.278;21.056;2022-07-29T05:09:20;101061.40;;;16.90
67353;BMP180;54238;52.278;21.056;2022-07-29T05:11:50;101058.60;;;16.90
67353;BMP180;54238;52.278;21.056;2022-07-29T05:14:19;101060.00;;;17.00
67353;BMP180;54238;52.278;21.056;2022-07-29T05:16:46;101060.60;;;17.10
67353;BMP180;54238;52.278;21.056;2022-07-29T05:19:16;101063.20;;;17.10
67353;BMP180;54238;52.278;21.056;2022-07-29T05:21:46;101069.40;;;17.20
67353;BMP180;54238;52.278;21.056;2022-07-29T05:24:16;101063.00;;;17.20
67353;BMP180;54238;52.278;21.056;2022-07-29T05:26:45;101069.00;;;17.30
67353;BMP180;54238;52.278;21.056;2022-07-29T05:29:17;101066.60;;;17.34
67353;BMP180;54238;52.278;21.056;2022-07-29T05:31:44;101067.80;;;17.40
67353;BMP180;54238;52.278;21.056;2022-07-29T05:34:11;101074.60;;;17.50
67353;BMP180;54238;52.278;21.056;2022-07-29T05:36:43;101076.40;;;17.52
67353;BMP180;54238;52.278;21.056;2022-07-29T05:39:11;101074.40;;;17.60
67353;BMP180;54238;52.278;21.056;2022-07-29T05:44:40;101076.60;;;17.70
67353;BMP180;54238;52.278;21.056;2022-07-29T05:47:10;101078.60;;;17.80
67353;BMP180;54238;52.278;21.056;2022-07-29T05:49:42;101073.40;;;17.90
67353;BMP180;54238;52.278;21.056;2022-07-29T05:52:13;101070.60;;;17.90
67353;BMP180;54238;52.278;21.056;2022-07-29T05:54:40;101071.20;;;18.00
67353;BMP180;54238;52.278;21.056;2022-07-29T05:57:40;101066.40;;;18.06
67353;BMP180;54238;52.278;21.056;2022-07-29T06:00:10;101063.60;;;18.10
67353;BMP180;54238;52.278;21.056;2022-07-29T06:02:40;101068.00;;;18.20
67353;BMP180;54238;52.278;21.056;2022-07-29T06:05:10;101065.60;;;18.22
67353;BMP180;54238;52.278;21.056;2022-07-29T06:07:42;101064.60;;;18.30
67353;BMP180;54238;52.278;21.056;2022-07-29T06:10:09;101059.80;;;18.40
67353;BMP180;54238;52.278;21.056;2022-07-29T06:15:13;101060.40;;;18.50
67353;BMP180;54238;52.278;21.056;2022-07-29T06:17:43;101064.40;;;18.54
67353;BMP180;54238;52.278;21.056;2022-07-29T06:20:11;101061.40;;;18.60
67353;BMP180;54238;52.278;21.056;2022-07-29T06:22:38;101061.80;;;18.70
67353;BMP180;54238;52.278;21.056;2022-07-29T06:25:05;101057.60;;;18.80
67353;BMP180;54238;52.278;21.056;2022-07-29T06:27:32;101056.80;;;18.86
67353;BMP180;54238;52.278;21.056;2022-07-29T06:30:02;101059.40;;;18.90
67353;BMP180;54238;52.278;21.056;2022-07-29T06:32:30;101059.80;;;19.00
67353;BMP180;54238;52.278;21.056;2022-07-29T06:34:57;101060.40;;;19.10
67353;BMP180;54238;52.278;21.056;2022-07-29T06:37:29;101064.60;;;19.20
67353;BMP180;54238;52.278;21.056;2022-07-29T06:39:58;101057.40;;;19.30
67353;BMP180;54238;52.278;21.056;2022-07-29T06:42:46;101052.40;;;19.40
67353;BMP180;54238;52.278;21.056;2022-07-29T06:45:21;101059.40;;;19.54
67353;BMP180;54238;52.278;21.056;2022-07-29T06:47:48;101062.20;;;19.68
67353;BMP180;54238;52.278;21.056;2022-07-29T06:50:17;101060.00;;;19.78
67353;BMP180;54238;52.278;21.056;2022-07-29T06:52:44;101056.80;;;19.88
67353;BMP180;54238;52.278;21.056;2022-07-29T06:55:13;101059.00;;;20.00
67353;BMP180;54238;52.278;21.056;2022-07-29T06:57:40;101054.80;;;20.10
67353;BMP180;54238;52.278;21.056;2022-07-29T07:00:09;101054.80;;;20.20
67353;BMP180;54238;52.278;21.056;2022-07-29T07:02:41;101058.00;;;20.34
67353;BMP180;54238;52.278;21.056;2022-07-29T07:05:15;101059.60;;;20.50
67353;BMP180;54238;52.278;21.056;2022-07-29T07:07:42;101067.00;;;20.60
67353;BMP180;54238;52.278;21.056;2022-07-29T07:10:09;101064.00;;;20.74
67353;BMP180;54238;52.278;21.056;2022-07-29T07:12:36;101057.60;;;20.90
67353;BMP180;54238;52.278;21.056;2022-07-29T07:15:06;101061.80;;;21.00
67353;BMP180;54238;52.278;21.056;2022-07-29T07:17:38;101059.20;;;21.16
67353;BMP180;54238;52.278;21.056;2022-07-29T07:20:10;101056.80;;;21.26
67353;BMP180;54238;52.278;21.056;2022-07-29T07:22:39;101054.80;;;21.32
67353;BMP180;54238;52.278;21.056;2022-07-29T07:25:11;101047.80;;;21.40
67353;BMP180;54238;52.278;21.056;2022-07-29T07:27:41;101057.60;;;21.50
67353;BMP180;54238;52.278;21.056;2022-07-29T07:30:11;101056.20;;;21.60
67353;BMP180;54238;52.278;21.056;2022-07-29T07:32:41;101054.40;;;21.70
67353;BMP180;54238;52.278;21.056;2022-07-29T07:35:11;101051.60;;;21.80
67353;BMP180;54238;52.278;21.056;2022-07-29T07:37:40;101056.60;;;21.90
67353;BMP180;54238;52.278;21.056;2022-07-29T07:40:11;101058.20;;;22.00
67353;BMP180;54238;52.278;21.056;2022-07-29T07:42:40;101054.20;;;22.20
67353;BMP180;54238;52.278;21.056;2022-07-29T07:45:08;101057.20;;;22.30
67353;BMP180;54238;52.278;21.056;2022-07-29T07:47:37;101056.00;;;22.30
67353;BMP180;54238;52.278;21.056;2022-07-29T07:50:09;101053.20;;;22.40
67353;BMP180;54238;52.278;21.056;2022-07-29T07:52:52;101055.20;;;22.42
67353;BMP180;54238;52.278;21.056;2022-07-29T07:55:19;101064.20;;;22.60
67353;BMP180;54238;52.278;21.056;2022-07-29T07:57:51;101065.60;;;22.70
67353;BMP180;54238;52.278;21.056;2022-07-29T08:00:21;101065.40;;;22.70
67353;BMP180;54238;52.278;21.056;2022-07-29T08:02:53;101058.20;;;22.80
67353;BMP180;54238;52.278;21.056;2022-07-29T08:05:20;101060.20;;;22.80
67353;BMP180;54238;52.278;21.056;2022-07-29T08:07:49;101058.20;;;22.90
67353;BMP180;54238;52.278;21.056;2022-07-29T08:10:18;101062.60;;;23.00
67353;BMP180;54238;52.278;21.056;2022-07-29T08:13:09;101064.80;;;23.20
67353;BMP180;54238;52.278;21.056;2022-07-29T08:15:42;101063.80;;;23.30
67353;BMP180;54238;52.278;21.056;2022-07-29T08:18:15;101062.40;;;23.40
67353;BMP180;54238;52.278;21.056;2022-07-29T08:20:47;101063.20;;;23.56
67353;BMP180;54238;52.278;21.056;2022-07-29T08:23:14;101059.40;;;23.64
67353;BMP180;54238;52.278;21.056;2022-07-29T08:26:25;101064.20;;;23.70
67353;BMP180;54238;52.278;21.056;2022-07-29T08:28:52;101060.20;;;23.80
67353;BMP180;54238;52.278;21.056;2022-07-29T08:31:24;101052.20;;;23.90
67353;BMP180;54238;52.278;21.056;2022-07-29T08:33:51;101053.80;;;24.00
67353;BMP180;54238;52.278;21.056;2022-07-29T08:36:20;101051.60;;;24.06
67353;BMP180;54238;52.278;21.056;2022-07-29T08:38:49;101050.40;;;24.20
67353;BMP180;54238;52.278;21.056;2022-07-29T08:41:19;101046.80;;;24.36
67353;BMP180;54238;52.278;21.056;2022-07-29T08:43:48;101050.00;;;24.48
67353;BMP180;54238;52.278;21.056;2022-07-29T08:46:21;101059.00;;;24.60
67353;BMP180;54238;52.278;21.056;2022-07-29T08:48:49;101053.00;;;24.72
67353;BMP180;54238;52.278;21.056;2022-07-29T08:51:21;101050.40;;;24.90
67353;BMP180;54238;52.278;21.056;2022-07-29T08:53:49;101058.00;;;25.00
67353;BMP180;54238;52.278;21.056;2022-07-29T08:56:22;101058.20;;;25.00
67353;BMP180;54238;52.278;21.056;2022-07-29T08:58:53;101060.60;;;25.10
67353;BMP180;54238;52.278;21.056;2022-07-29T09:01:25;101060.80;;;25.30
67353;BMP180;54238;52.278;21.056;2022-07-29T09:03:59;101057.00;;;25.48
67353;BMP180;54238;52.278;21.056;2022-07-29T09:06:32;101060.80;;;25.60
67353;BMP180;54238;52.278;21.056;2022-07-29T09:09:01;101061.00;;;25.80
67353;BMP180;54238;52.278;21.056;2022-07-29T09:11:28;101053.20;;;25.82
67353;BMP180;54238;52.278;21.056;2022-07-29T09:14:00;101048.40;;;25.90
67353;BMP180;54238;52.278;21.056;2022-07-29T09:16:52;101048.20;;;25.90
67353;BMP180;54238;52.278;21.056;2022-07-29T09:19:44;101048.20;;;26.10
67353;BMP180;54238;52.278;21.056;2022-07-29T09:22:10;101036.40;;;26.34
67353;BMP180;54238;52.278;21.056;2022-07-29T09:24:42;101039.00;;;26.60
67353;BMP180;54238;52.278;21.056;2022-07-29T09:29:56;101044.40;;;26.80
67353;BMP180;54238;52.278;21.056;2022-07-29T09:32:28;101048.20;;;26.74
67353;BMP180;54238;52.278;21.056;2022-07-29T09:35:19;101052.60;;;26.60
67353;BMP180;54238;52.278;21.056;2022-07-29T09:37:48;101049.80;;;26.70
67353;BMP180;54238;52.278;21.056;2022-07-29T09:40:22;101043.60;;;26.80
67353;BMP180;54238;52.278;21.056;2022-07-29T09:42:49;101035.40;;;26.80
67353;BMP180;54238;52.278;21.056;2022-07-29T09:47:55;101040.00;;;27.10
67353;BMP180;54238;52.278;21.056;2022-07-29T09:50:37;101038.60;;;27.28
67353;BMP180;54238;52.278;21.056;2022-07-29T09:53:04;101038.20;;;27.60
67353;BMP180;54238;52.278;21.056;2022-07-29T09:55:49;101040.00;;;27.88
67353;BMP180;54238;52.278;21.056;2022-07-29T09:58:21;101036.80;;;27.90
67353;BMP180;54238;52.278;21.056;2022-07-29T10:00:53;101037.80;;;27.80
67353;BMP180;54238;52.278;21.056;2022-07-29T10:03:24;101031.80;;;27.80
67353;BMP180;54238;52.278;21.056;2022-07-29T10:06:11;101035.80;;;27.80
67353;BMP180;54238;52.278;21.056;2022-07-29T10:08:41;101027.40;;;27.70
67353;BMP180;54238;52.278;21.056;2022-07-29T10:11:16;101028.20;;;27.60
67353;BMP180;54238;52.278;21.056;2022-07-29T10:13:47;101030.60;;;27.50
67353;BMP180;54238;52.278;21.056;2022-07-29T10:16:19;101030.40;;;27.50
67353;BMP180;54238;52.278;21.056;2022-07-29T10:18:49;101028.20;;;27.40
67353;BMP180;54238;52.278;21.056;2022-07-29T10:21:20;101028.00;;;27.30
67353;BMP180;54238;52.278;21.056;2022-07-29T10:23:50;101024.20;;;27.30
67353;BMP180;54238;52.278;21.056;2022-07-29T10:26:17;101023.20;;;27.40
67353;BMP180;54238;52.278;21.056;2022-07-29T10:28:48;101017.40;;;27.48
67353;BMP180;54238;52.278;21.056;2022-07-29T10:31:36;101015.00;;;27.58
67353;BMP180;54238;52.278;21.056;2022-07-29T10:34:25;101010.40;;;27.70
67353;BMP180;54238;52.278;21.056;2022-07-29T10:39:55;101008.80;;;28.10
67353;BMP180;54238;52.278;21.056;2022-07-29T10:42:30;101011.80;;;28.30
67353;BMP180;54238;52.278;21.056;2022-07-29T10:44:57;101004.60;;;28.40
67353;BMP180;54238;52.278;21.056;2022-07-29T10:47:28;101001.80;;;28.50
67353;BMP180;54238;52.278;21.056;2022-07-29T10:50:00;101005.00;;;28.60
67353;BMP180;54238;52.278;21.056;2022-07-29T10:55:37;101007.40;;;29.00
67353;BMP180;54238;52.278;21.056;2022-07-29T10:58:11;101007.60;;;29.00
67353;BMP180;54238;52.278;21.056;2022-07-29T11:00:51;101005.00;;;29.00
67353;BMP180;54238;52.278;21.056;2022-07-29T11:06:07;101004.80;;;29.40
67353;BMP180;54238;52.278;21.056;2022-07-29T11:08:39;101007.80;;;29.24
67353;BMP180;54238;52.278;21.056;2022-07-29T11:13:51;100994.00;;;29.10
67353;BMP180;54238;52.278;21.056;2022-07-29T11:16:24;101001.00;;;29.30
67353;BMP180;54238;52.278;21.056;2022-07-29T11:21:43;101000.40;;;29.34
67353;BMP180;54238;52.278;21.056;2022-07-29T11:24:46;100996.80;;;29.30
67353;BMP180;54238;52.278;21.056;2022-07-29T11:27:31;100993.60;;;29.30
67353;BMP180;54238;52.278;21.056;2022-07-29T11:30:07;100996.20;;;29.30
67353;BMP180;54238;52.278;21.056;2022-07-29T11:32:43;100993.80;;;29.20
67353;BMP180;54238;52.278;21.056;2022-07-29T11:35:22;100986.40;;;29.10
67353;BMP180;54238;52.278;21.056;2022-07-29T11:38:24;100983.60;;;29.10
67353;BMP180;54238;52.278;21.056;2022-07-29T11:41:25;100988.60;;;29.20
67353;BMP180;54238;52.278;21.056;2022-07-29T11:43:59;100984.80;;;29.20
67353;BMP180;54238;52.278;21.056;2022-07-29T11:46:50;100981.00;;;29.30
67353;BMP180;54238;52.278;21.056;2022-07-29T11:49:26;100976.60;;;29.40
67353;BMP180;54238;52.278;21.056;2022-07-29T11:52:01;100984.40;;;29.50
67353;BMP180;54238;52.278;21.056;2022-07-29T11:54:52;100982.80;;;29.46
67353;BMP180;54238;52.278;21.056;2022-07-29T11:58:02;100976.20;;;29.50
67353;BMP180;54238;52.278;21.056;2022-07-29T12:00:33;100978.80;;;29.70
67353;BMP180;54238;52.278;21.056;2022-07-29T12:03:08;100976.00;;;29.98
67353;BMP180;54238;52.278;21.056;2022-07-29T12:05:44;100971.40;;;30.40
67353;BMP180;54238;52.278;21.056;2022-07-29T12:08:19;100972.20;;;30.94
67353;BMP180;54238;52.278;21.056;2022-07-29T12:10:50;100967.20;;;31.58
67353;BMP180;54238;52.278;21.056;2022-07-29T12:13:23;100969.40;;;32.20
67353;BMP180;54238;52.278;21.056;2022-07-29T12:15:56;100971.80;;;32.50
67353;BMP180;54238;52.278;21.056;2022-07-29T12:18:28;100974.60;;;32.60
67353;BMP180;54238;52.278;21.056;2022-07-29T12:20:59;100979.00;;;32.54
67353;BMP180;54238;52.278;21.056;2022-07-29T12:23:35;100973.40;;;32.80
67353;BMP180;54238;52.278;21.056;2022-07-29T12:26:10;100976.00;;;32.76
67353;BMP180;54238;52.278;21.056;2022-07-29T12:28:40;100978.60;;;32.38
67353;BMP180;54238;52.278;21.056;2022-07-29T12:31:13;100976.00;;;32.20
67353;BMP180;54238;52.278;21.056;2022-07-29T12:33:52;100971.60;;;32.26
67353;BMP180;54238;52.278;21.056;2022-07-29T12:36:20;100971.00;;;32.64
67353;BMP180;54238;52.278;21.056;2022-07-29T12:38:52;100963.80;;;33.02
67353;BMP180;54238;52.278;21.056;2022-07-29T12:41:21;100961.80;;;33.46
67353;BMP180;54238;52.278;21.056;2022-07-29T12:43:54;100955.20;;;33.78
67353;BMP180;54238;52.278;21.056;2022-07-29T12:46:26;100963.40;;;33.90
67353;BMP180;54238;52.278;21.056;2022-07-29T12:48:56;100965.20;;;33.70
67353;BMP180;54238;52.278;21.056;2022-07-29T12:54:14;100955.40;;;33.10
67353;BMP180;54238;52.278;21.056;2022-07-29T12:56:44;100952.00;;;32.60
67353;BMP180;54238;52.278;21.056;2022-07-29T12:59:23;100952.80;;;32.08
67353;BMP180;54238;52.278;21.056;2022-07-29T13:01:52;100952.20;;;31.64
67353;BMP180;54238;52.278;21.056;2022-07-29T13:04:33;100957.60;;;31.30
67353;BMP180;54238;52.278;21.056;2022-07-29T13:07:07;100958.20;;;31.00
67353;BMP180;54238;52.278;21.056;2022-07-29T13:09:41;100956.60;;;30.72
67353;BMP180;54238;52.278;21.056;2022-07-29T13:12:13;100954.40;;;30.54
67353;BMP180;54238;52.278;21.056;2022-07-29T13:14:46;100956.20;;;30.40
67353;BMP180;54238;52.278;21.056;2022-07-29T13:17:19;100950.80;;;30.10
67353;BMP180;54238;52.278;21.056;2022-07-29T13:20:08;100950.40;;;29.90
67353;BMP180;54238;52.278;21.056;2022-07-29T13:22:42;100948.00;;;29.70
67353;BMP180;54238;52.278;21.056;2022-07-29T13:25:12;100942.20;;;29.60
67353;BMP180;54238;52.278;21.056;2022-07-29T13:27:39;100937.00;;;29.40
67353;BMP180;54238;52.278;21.056;2022-07-29T13:30:08;100936.00;;;29.32
67353;BMP180;54238;52.278;21.056;2022-07-29T13:32:37;100936.40;;;29.30
67353;BMP180;54238;52.278;21.056;2022-07-29T13:35:10;100934.40;;;29.32
67353;BMP180;54238;52.278;21.056;2022-07-29T13:37:40;100933.20;;;29.72
67353;BMP180;54238;52.278;21.056;2022-07-29T13:40:09;100922.20;;;30.10
67353;BMP180;54238;52.278;21.056;2022-07-29T13:42:39;100926.60;;;30.54
67353;BMP180;54238;52.278;21.056;2022-07-29T13:45:14;100921.60;;;30.90
67353;BMP180;54238;52.278;21.056;2022-07-29T13:47:44;100926.80;;;31.22
67353;BMP180;54238;52.278;21.056;2022-07-29T13:50:17;100929.80;;;31.40
67353;BMP180;54238;52.278;21.056;2022-07-29T13:52:45;100921.80;;;31.12
67353;BMP180;54238;52.278;21.056;2022-07-29T13:55:27;100919.60;;;31.00
67353;BMP180;54238;52.278;21.056;2022-07-29T13:57:54;100920.40;;;31.08
67353;BMP180;54238;52.278;21.056;2022-07-29T14:00:21;100915.20;;;31.40
67353;BMP180;54238;52.278;21.056;2022-07-29T14:03:21;100914.00;;;31.82
67353;BMP180;54238;52.278;21.056;2022-07-29T14:05:51;100909.40;;;32.32
67353;BMP180;54238;52.278;21.056;2022-07-29T14:08:22;100905.40;;;32.94
67353;BMP180;54238;52.278;21.056;2022-07-29T14:10:56;100910.80;;;33.58
67353;BMP180;54238;52.278;21.056;2022-07-29T14:13:23;100915.80;;;33.90
67353;BMP180;54238;52.278;21.056;2022-07-29T14:16:22;100907.60;;;34.00
67353;BMP180;54238;52.278;21.056;2022-07-29T14:18:49;100906.20;;;34.46
67353;BMP180;54238;52.278;21.056;2022-07-29T14:21:16;100908.60;;;34.62
67353;BMP180;54238;52.278;21.056;2022-07-29T14:23:44;100906.60;;;34.74
67353;BMP180;54238;52.278;21.056;2022-07-29T14:26:43;100915.80;;;34.56
67353;BMP180;54238;52.278;21.056;2022-07-29T14:29:16;100906.40;;;34.08
67353;BMP180;54238;52.278;21.056;2022-07-29T14:31:43;100905.20;;;33.68
67353;BMP180;54238;52.278;21.056;2022-07-29T14:34:12;100904.60;;;33.40
67353;BMP180;54238;52.278;21.056;2022-07-29T14:36:42;100900.00;;;33.30
67353;BMP180;54238;52.278;21.056;2022-07-29T14:39:09;100891.40;;;33.10
67353;BMP180;54238;52.278;21.056;2022-07-29T14:42:12;100891.60;;;32.90
67353;BMP180;54238;52.278;21.056;2022-07-29T14:44:45;100892.60;;;32.90
67353;BMP180;54238;52.278;21.056;2022-07-29T14:47:12;100889.80;;;33.04
67353;BMP180;54238;52.278;21.056;2022-07-29T14:49:43;100889.80;;;33.14
67353;BMP180;54238;52.278;21.056;2022-07-29T14:52:12;100888.20;;;33.00